sensor_id;sensor_type;location;lat;lon;timestamp;pressure;altitude;pressure_sealevel;temperature;humidity
60642;BME280;46837;52.446;-1.930;2022-11-14T00:00:09;99882.32;;;11.95;90.02
60642;BME280;46837;52.446;-1.930;2022-11-14T00:01:10;99883.80;;;11.95;90.10
60642;BME280;46837;52.446;-1.930;2022-11-14T00:02:09;99885.14;;;11.92;90.10
60642;BME280;46837;52.446;-1.930;2022-11-14T00:03:09;99883.27;;;11.93;90.19
60642;BME280;46837;52.446;-1.930;2022-11-14T00:04:09;99884.67;;;11.89;90.03
60642;BME280;46837;52.446;-1.930;2022-11-14T00:05:09;99882.51;;;11.93;90.30
60642;BME280;46837;52.446;-1.930;2022-11-14T00:06:09;99881.17;;;11.96;90.16
60642;BME280;46837;52.446;-1.930;2022-11-14T00:07:09;99879.42;;;11.96;89.90
60642;BME280;46837;52.446;-1.930;2022-11-14T00:08:16;99879.91;;;11.95;89.88
60642;BME280;46837;52.446;-1.930;2022-11-14T00:09:09;99876.24;;;11.93;89.85
60642;BME280;46837;52.446;-1.930;2022-11-14T00:10:09;99876.98;;;11.91;89.91
60642;BME280;46837;52.446;-1.930;2022-11-14T00:11:09;99876.12;;;11.89;89.87
60642;BME280;46837;52.446;-1.930;2022-11-14T00:12:11;99875.45;;;11.92;90.12
60642;BME280;46837;52.446;-1.930;2022-11-14T00:13:09;99870.43;;;11.89;89.99
60642;BME280;46837;52.446;-1.930;2022-11-14T00:14:09;99868.44;;;11.91;90.09
60642;BME280;46837;52.446;-1.930;2022-11-14T00:15:09;99868.46;;;11.90;89.92
60642;BME280;46837;52.446;-1.930;2022-11-14T00:16:09;99869.12;;;11.94;90.01
60642;BME280;46837;52.446;-1.930;2022-11-14T00:17:09;99866.85;;;11.92;89.72
60642;BME280;46837;52.446;-1.930;2022-11-14T00:18:09;99864.55;;;11.93;89.89
60642;BME280;46837;52.446;-1.930;2022-11-14T00:19:09;99859.32;;;11.89;89.84
60642;BME280;46837;52.446;-1.930;2022-11-14T00:20:10;99854.30;;;11.82;89.85
60642;BME280;46837;52.446;-1.930;2022-11-14T00:21:09;99855.79;;;11.84;90.24
60642;BME280;46837;52.446;-1.930;2022-11-14T00:22:09;99850.07;;;11.87;90.05
60642;BME280;46837;52.446;-1.930;2022-11-14T00:23:09;99848.99;;;11.80;89.85
60642;BME280;46837;52.446;-1.930;2022-11-14T00:24:09;99844.99;;;11.81;90.28
60642;BME280;46837;52.446;-1.930;2022-11-14T00:25:09;99843.19;;;11.81;89.94
60642;BME280;46837;52.446;-1.930;2022-11-14T00:26:09;99840.12;;;11.80;90.06
60642;BME280;46837;52.446;-1.930;2022-11-14T00:27:09;99841.95;;;11.79;89.92
60642;BME280;46837;52.446;-1.930;2022-11-14T00:28:09;99840.78;;;11.82;90.12
60642;BME280;46837;52.446;-1.930;2022-11-14T00:29:12;99841.36;;;11.83;89.88
60642;BME280;46837;52.446;-1.930;2022-11-14T00:30:09;99842.53;;;11.80;89.84
60642;BME280;46837;52.446;-1.930;2022-11-14T00:31:09;99842.50;;;11.76;90.05
60642;BME280;46837;52.446;-1.930;2022-11-14T00:32:09;99837.82;;;11.75;90.13
60642;BME280;46837;52.446;-1.930;2022-11-14T00:33:09;99838.75;;;11.74;90.34
60642;BME280;46837;52.446;-1.930;2022-11-14T00:34:09;99837.08;;;11.78;90.23
60642;BME280;46837;52.446;-1.930;2022-11-14T00:35:09;99834.54;;;11.80;90.18
60642;BME280;46837;52.446;-1.930;2022-11-14T00:36:09;99832.57;;;11.85;89.96
60642;BME280;46837;52.446;-1.930;2022-11-14T00:37:09;99830.71;;;11.80;89.88
60642;BME280;46837;52.446;-1.930;2022-11-14T00:38:09;99832.70;;;11.79;89.89
60642;BME280;46837;52.446;-1.930;2022-11-14T00:39:11;99826.89;;;11.78;90.02
60642;BME280;46837;52.446;-1.930;2022-11-14T00:40:09;99825.69;;;11.79;90.13
60642;BME280;46837;52.446;-1.930;2022-11-14T00:41:09;99827.58;;;11.81;90.10
60642;BME280;46837;52.446;-1.930;2022-11-14T00:42:09;99825.92;;;11.89;90.16
60642;BME280;46837;52.446;-1.930;2022-11-14T00:43:09;99826.17;;;11.91;89.79
60642;BME280;46837;52.446;-1.930;2022-11-14T00:44:09;99827.26;;;11.90;89.52
60642;BME280;46837;52.446;-1.930;2022-11-14T00:45:09;99825.21;;;11.95;89.73
60642;BME280;46837;52.446;-1.930;2022-11-14T00:46:09;99823.61;;;11.97;89.36
60642;BME280;46837;52.446;-1.930;2022-11-14T00:47:09;99823.21;;;11.92;89.27
60642;BME280;46837;52.446;-1.930;2022-11-14T00:48:09;99820.30;;;11.92;89.38
60642;BME280;46837;52.446;-1.930;2022-11-14T00:49:09;99818.75;;;11.89;89.37
60642;BME280;46837;52.446;-1.930;2022-11-14T00:50:09;99821.02;;;11.91;89.56
60642;BME280;46837;52.446;-1.930;2022-11-14T00:51:09;99824.17;;;11.94;89.57
60642;BME280;46837;52.446;-1.930;2022-11-14T00:52:09;99821.15;;;11.97;89.45
60642;BME280;46837;52.446;-1.930;2022-11-14T00:53:09;99820.68;;;11.99;89.27
60642;BME280;46837;52.446;-1.930;2022-11-14T00:54:09;99819.79;;;12.00;89.14
60642;BME280;46837;52.446;-1.930;2022-11-14T00:55:09;99813.97;;;12.04;89.17
60642;BME280;46837;52.446;-1.930;2022-11-14T00:56:09;99813.04;;;12.03;88.92
60642;BME280;46837;52.446;-1.930;2022-11-14T00:57:09;99812.71;;;12.03;88.84
60642;BME280;46837;52.446;-1.930;2022-11-14T00:58:09;99816.71;;;12.03;88.99
60642;BME280;46837;52.446;-1.930;2022-11-14T00:59:09;99817.29;;;12.06;89.05
60642;BME280;46837;52.446;-1.930;2022-11-14T01:00:09;99821.53;;;12.09;88.89
60642;BME280;46837;52.446;-1.930;2022-11-14T01:01:09;99821.72;;;12.12;88.65
60642;BME280;46837;52.446;-1.930;2022-11-14T01:02:09;99822.46;;;12.09;88.44
60642;BME280;46837;52.446;-1.930;2022-11-14T01:03:09;99820.11;;;12.03;88.62
60642;BME280;46837;52.446;-1.930;2022-11-14T01:04:09;99822.49;;;12.05;88.87
60642;BME280;46837;52.446;-1.930;2022-11-14T01:05:09;99825.72;;;12.06;88.76
60642;BME280;46837;52.446;-1.930;2022-11-14T01:06:10;99830.35;;;12.08;88.69
60642;BME280;46837;52.446;-1.930;2022-11-14T01:07:09;99830.48;;;12.11;88.70
60642;BME280;46837;52.446;-1.930;2022-11-14T01:08:09;99833.05;;;12.12;88.47
60642;BME280;46837;52.446;-1.930;2022-11-14T01:09:09;99830.05;;;12.05;88.31
60642;BME280;46837;52.446;-1.930;2022-11-14T01:10:09;99827.77;;;12.04;88.69
60642;BME280;46837;52.446;-1.930;2022-11-14T01:11:16;99822.00;;;12.04;88.62
60642;BME280;46837;52.446;-1.930;2022-11-14T01:12:09;99818.66;;;11.97;88.60
60642;BME280;46837;52.446;-1.930;2022-11-14T01:13:09;99813.95;;;11.93;88.76
60642;BME280;46837;52.446;-1.930;2022-11-14T01:14:09;99814.86;;;11.94;89.00
60642;BME280;46837;52.446;-1.930;2022-11-14T01:15:09;99815.43;;;11.93;88.86
60642;BME280;46837;52.446;-1.930;2022-11-14T01:16:09;99813.46;;;11.93;89.05
60642;BME280;46837;52.446;-1.930;2022-11-14T01:17:09;99810.70;;;11.89;89.01
60642;BME280;46837;52.446;-1.930;2022-11-14T01:18:10;99804.40;;;11.76;89.32
60642;BME280;46837;52.446;-1.930;2022-11-14T01:19:09;99801.96;;;11.81;89.85
60642;BME280;46837;52.446;-1.930;2022-11-14T01:20:09;99805.19;;;11.82;89.67
60642;BME280;46837;52.446;-1.930;2022-11-14T01:21:09;99799.39;;;11.85;89.45
60642;BME280;46837;52.446;-1.930;2022-11-14T01:22:09;99797.69;;;11.82;89.32
60642;BME280;46837;52.446;-1.930;2022-11-14T01:23:09;99798.73;;;11.73;89.52
60642;BME280;46837;52.446;-1.930;2022-11-14T01:24:09;99793.51;;;11.77;89.73
60642;BME280;46837;52.446;-1.930;2022-11-14T01:25:09;99798.24;;;11.81;89.52
60642;BME280;46837;52.446;-1.930;2022-11-14T01:26:10;99798.54;;;11.77;89.28
60642;BME280;46837;52.446;-1.930;2022-11-14T01:27:09;99793.59;;;11.81;89.49
60642;BME280;46837;52.446;-1.930;2022-11-14T01:28:15;99792.41;;;11.83;89.32
60642;BME280;46837;52.446;-1.930;2022-11-14T01:29:09;99790.91;;;11.84;89.16
60642;BME280;46837;52.446;-1.930;2022-11-14T01:30:09;99789.64;;;11.82;89.27
60642;BME280;46837;52.446;-1.930;2022-11-14T01:31:16;99791.20;;;11.83;89.16
60642;BME280;46837;52.446;-1.930;2022-11-14T01:32:09;99791.12;;;11.82;89.30
60642;BME280;46837;52.446;-1.930;2022-11-14T01:33:09;99786.57;;;11.83;89.11
60642;BME280;46837;52.446;-1.930;2022-11-14T01:34:09;99786.88;;;11.77;89.27
60642;BME280;46837;52.446;-1.930;2022-11-14T01:35:09;99785.92;;;11.81;89.40
60642;BME280;46837;52.446;-1.930;2022-11-14T01:36:09;99783.54;;;11.78;89.36
60642;BME280;46837;52.446;-1.930;2022-11-14T01:37:09;99785.12;;;11.79;89.38
60642;BME280;46837;52.446;-1.930;2022-11-14T01:38:11;99777.65;;;11.82;89.37
60642;BME280;46837;52.446;-1.930;2022-11-14T01:39:09;99776.37;;;11.83;89.19
60642;BME280;46837;52.446;-1.930;2022-11-14T01:40:09;99777.36;;;11.87;89.17
60642;BME280;46837;52.446;-1.930;2022-11-14T01:41:10;99772.62;;;11.85;88.90
60642;BME280;46837;52.446;-1.930;2022-11-14T01:42:09;99766.98;;;11.80;88.93
60642;BME280;46837;52.446;-1.930;2022-11-14T01:44:14;99766.57;;;11.70;89.24
60642;BME280;46837;52.446;-1.930;2022-11-14T01:46:14;99764.11;;;11.64;89.92
60642;BME280;46837;52.446;-1.930;2022-11-14T01:47:09;99763.32;;;11.61;89.85
60642;BME280;46837;52.446;-1.930;2022-11-14T01:50:09;99756.67;;;11.50;90.87
60642;BME280;46837;52.446;-1.930;2022-11-14T01:51:17;99757.35;;;11.45;90.51
60642;BME280;46837;52.446;-1.930;2022-11-14T01:52:17;99755.90;;;11.43;90.85
60642;BME280;46837;52.446;-1.930;2022-11-14T01:53:09;99753.38;;;11.42;90.79
60642;BME280;46837;52.446;-1.930;2022-11-14T01:54:19;99753.55;;;11.41;90.82
60642;BME280;46837;52.446;-1.930;2022-11-14T01:55:09;99750.18;;;11.47;90.96
60642;BME280;46837;52.446;-1.930;2022-11-14T01:56:09;99749.12;;;11.49;90.64
60642;BME280;46837;52.446;-1.930;2022-11-14T01:57:09;99751.11;;;11.54;90.62
60642;BME280;46837;52.446;-1.930;2022-11-14T01:58:09;99750.84;;;11.55;90.23
60642;BME280;46837;52.446;-1.930;2022-11-14T01:59:10;99749.47;;;11.53;90.15
60642;BME280;46837;52.446;-1.930;2022-11-14T02:00:10;99750.60;;;11.55;90.31
60642;BME280;46837;52.446;-1.930;2022-11-14T02:01:09;99750.93;;;11.55;90.18
60642;BME280;46837;52.446;-1.930;2022-11-14T02:03:10;99753.71;;;11.57;89.97
60642;BME280;46837;52.446;-1.930;2022-11-14T02:04:09;99753.47;;;11.52;90.17
60642;BME280;46837;52.446;-1.930;2022-11-14T02:05:13;99756.12;;;11.56;90.27
60642;BME280;46837;52.446;-1.930;2022-11-14T02:06:09;99753.44;;;11.56;90.09
60642;BME280;46837;52.446;-1.930;2022-11-14T02:07:09;99755.49;;;11.62;90.17
60642;BME280;46837;52.446;-1.930;2022-11-14T02:08:12;99754.70;;;11.65;89.89
60642;BME280;46837;52.446;-1.930;2022-11-14T02:09:09;99756.12;;;11.65;89.71
60642;BME280;46837;52.446;-1.930;2022-11-14T02:10:17;99757.21;;;11.64;89.78
60642;BME280;46837;52.446;-1.930;2022-11-14T02:11:10;99759.38;;;11.59;89.88
60642;BME280;46837;52.446;-1.930;2022-11-14T02:12:10;99760.50;;;11.56;90.03
60642;BME280;46837;52.446;-1.930;2022-11-14T02:13:09;99757.52;;;11.61;90.13
60642;BME280;46837;52.446;-1.930;2022-11-14T02:14:09;99756.67;;;11.62;89.90
60642;BME280;46837;52.446;-1.930;2022-11-14T02:15:09;99755.99;;;11.66;89.94
60642;BME280;46837;52.446;-1.930;2022-11-14T02:16:09;99758.53;;;11.70;89.77
60642;BME280;46837;52.446;-1.930;2022-11-14T02:17:09;99759.16;;;11.68;89.54
60642;BME280;46837;52.446;-1.930;2022-11-14T02:18:09;99757.65;;;11.70;89.64
60642;BME280;46837;52.446;-1.930;2022-11-14T02:19:09;99756.37;;;11.73;89.48
60642;BME280;46837;52.446;-1.930;2022-11-14T02:20:18;99752.23;;;11.72;89.42
60642;BME280;46837;52.446;-1.930;2022-11-14T02:21:09;99751.44;;;11.68;89.27
60642;BME280;46837;52.446;-1.930;2022-11-14T02:22:09;99750.40;;;11.67;89.52
60642;BME280;46837;52.446;-1.930;2022-11-14T02:23:09;99750.86;;;11.70;89.56
60642;BME280;46837;52.446;-1.930;2022-11-14T02:24:11;99751.03;;;11.70;89.41
60642;BME280;46837;52.446;-1.930;2022-11-14T02:25:09;99746.87;;;11.70;89.49
60642;BME280;46837;52.446;-1.930;2022-11-14T02:26:09;99747.49;;;11.76;89.51
60642;BME280;46837;52.446;-1.930;2022-11-14T02:27:09;99743.06;;;11.76;89.23
60642;BME280;46837;52.446;-1.930;2022-11-14T02:28:09;99748.34;;;11.79;89.20
60642;BME280;46837;52.446;-1.930;2022-11-14T02:29:10;99747.88;;;11.73;89.09
60642;BME280;46837;52.446;-1.930;2022-11-14T02:30:13;99744.62;;;11.76;89.35
60642;BME280;46837;52.446;-1.930;2022-11-14T02:31:09;99745.69;;;11.75;89.22
60642;BME280;46837;52.446;-1.930;2022-11-14T02:32:09;99745.01;;;11.76;89.20
60642;BME280;46837;52.446;-1.930;2022-11-14T02:33:09;99745.66;;;11.71;89.14
60642;BME280;46837;52.446;-1.930;2022-11-14T02:34:09;99744.60;;;11.73;89.40
60642;BME280;46837;52.446;-1.930;2022-11-14T02:35:09;99741.97;;;11.73;89.25
60642;BME280;46837;52.446;-1.930;2022-11-14T02:36:09;99740.43;;;11.74;89.14
60642;BME280;46837;52.446;-1.930;2022-11-14T02:37:09;99745.68;;;11.76;89.19
60642;BME280;46837;52.446;-1.930;2022-11-14T02:38:09;99743.04;;;11.72;89.05
60642;BME280;46837;52.446;-1.930;2022-11-14T02:39:09;99740.21;;;11.75;89.35
60642;BME280;46837;52.446;-1.930;2022-11-14T02:40:09;99735.07;;;11.79;89.24
60642;BME280;46837;52.446;-1.930;2022-11-14T02:41:09;99735.92;;;11.77;88.99
60642;BME280;46837;52.446;-1.930;2022-11-14T02:42:09;99735.48;;;11.76;89.13
60642;BME280;46837;52.446;-1.930;2022-11-14T02:43:09;99739.01;;;11.75;89.01
60642;BME280;46837;52.446;-1.930;2022-11-14T02:44:09;99737.40;;;11.70;89.12
60642;BME280;46837;52.446;-1.930;2022-11-14T02:45:09;99737.51;;;11.69;89.24
60642;BME280;46837;52.446;-1.930;2022-11-14T02:46:09;99735.62;;;11.73;89.31
60642;BME280;46837;52.446;-1.930;2022-11-14T02:47:09;99731.73;;;11.68;89.11
60642;BME280;46837;52.446;-1.930;2022-11-14T02:48:09;99729.30;;;11.70;89.25
60642;BME280;46837;52.446;-1.930;2022-11-14T02:49:09;99726.73;;;11.69;89.29
60642;BME280;46837;52.446;-1.930;2022-11-14T02:50:09;99723.88;;;11.71;89.29
60642;BME280;46837;52.446;-1.930;2022-11-14T02:51:09;99723.44;;;11.70;89.15
60642;BME280;46837;52.446;-1.930;2022-11-14T02:52:09;99717.25;;;11.72;89.15
60642;BME280;46837;52.446;-1.930;2022-11-14T02:53:09;99713.97;;;11.76;89.17
60642;BME280;46837;52.446;-1.930;2022-11-14T02:54:09;99711.95;;;11.76;88.98
60642;BME280;46837;52.446;-1.930;2022-11-14T02:55:09;99708.85;;;11.74;88.88
60642;BME280;46837;52.446;-1.930;2022-11-14T02:56:09;99709.21;;;11.71;88.95
60642;BME280;46837;52.446;-1.930;2022-11-14T02:57:09;99705.71;;;11.70;89.02
60642;BME280;46837;52.446;-1.930;2022-11-14T02:58:09;99708.67;;;11.69;89.10
60642;BME280;46837;52.446;-1.930;2022-11-14T02:59:09;99704.61;;;11.71;89.20
60642;BME280;46837;52.446;-1.930;2022-11-14T03:00:09;99704.85;;;11.75;89.14
60642;BME280;46837;52.446;-1.930;2022-11-14T03:01:09;99704.58;;;11.74;88.87
60642;BME280;46837;52.446;-1.930;2022-11-14T03:02:09;99700.83;;;11.71;88.84
60642;BME280;46837;52.446;-1.930;2022-11-14T03:03:09;99697.50;;;11.69;88.96
60642;BME280;46837;52.446;-1.930;2022-11-14T03:04:09;99697.72;;;11.65;89.00
60642;BME280;46837;52.446;-1.930;2022-11-14T03:05:09;99696.16;;;11.67;89.28
60642;BME280;46837;52.446;-1.930;2022-11-14T03:06:09;99696.49;;;11.67;89.05
60642;BME280;46837;52.446;-1.930;2022-11-14T03:07:09;99693.61;;;11.53;89.26
60642;BME280;46837;52.446;-1.930;2022-11-14T03:08:09;99694.61;;;11.57;89.86
60642;BME280;46837;52.446;-1.930;2022-11-14T03:09:09;99695.71;;;11.62;89.63
60642;BME280;46837;52.446;-1.930;2022-11-14T03:10:09;99695.82;;;11.56;89.19
60642;BME280;46837;52.446;-1.930;2022-11-14T03:11:09;99692.53;;;11.56;89.57
60642;BME280;46837;52.446;-1.930;2022-11-14T03:12:09;99689.20;;;11.57;89.66
60642;BME280;46837;52.446;-1.930;2022-11-14T03:13:09;99689.33;;;11.61;89.64
60642;BME280;46837;52.446;-1.930;2022-11-14T03:14:09;99686.61;;;11.64;89.45
60642;BME280;46837;52.446;-1.930;2022-11-14T03:15:09;99684.68;;;11.60;89.37
60642;BME280;46837;52.446;-1.930;2022-11-14T03:16:10;99683.64;;;11.60;89.45
60642;BME280;46837;52.446;-1.930;2022-11-14T03:17:09;99684.13;;;11.58;89.50
60642;BME280;46837;52.446;-1.930;2022-11-14T03:18:09;99682.24;;;11.62;89.66
60642;BME280;46837;52.446;-1.930;2022-11-14T03:19:09;99682.97;;;11.67;89.58
60642;BME280;46837;52.446;-1.930;2022-11-14T03:20:09;99683.03;;;11.67;89.28
60642;BME280;46837;52.446;-1.930;2022-11-14T03:21:13;99685.24;;;11.65;89.48
60642;BME280;46837;52.446;-1.930;2022-11-14T03:22:09;99685.27;;;11.67;89.44
60642;BME280;46837;52.446;-1.930;2022-11-14T03:23:09;99688.56;;;11.66;89.25
60642;BME280;46837;52.446;-1.930;2022-11-14T03:24:09;99686.05;;;11.72;89.42
60642;BME280;46837;52.446;-1.930;2022-11-14T03:25:09;99684.59;;;11.76;89.17
60642;BME280;46837;52.446;-1.930;2022-11-14T03:26:09;99681.86;;;11.74;88.83
60642;BME280;46837;52.446;-1.930;2022-11-14T03:27:09;99685.61;;;11.76;89.02
60642;BME280;46837;52.446;-1.930;2022-11-14T03:28:09;99687.36;;;11.77;88.89
60642;BME280;46837;52.446;-1.930;2022-11-14T03:29:09;99689.71;;;11.79;88.83
60642;BME280;46837;52.446;-1.930;2022-11-14T03:30:09;99690.70;;;11.76;88.84
60642;BME280;46837;52.446;-1.930;2022-11-14T03:31:10;99694.86;;;11.78;89.01
60642;BME280;46837;52.446;-1.930;2022-11-14T03:32:09;99694.77;;;11.83;88.92
60642;BME280;46837;52.446;-1.930;2022-11-14T03:33:09;99695.18;;;11.87;88.79
60642;BME280;46837;52.446;-1.930;2022-11-14T03:34:09;99690.64;;;11.92;88.65
60642;BME280;46837;52.446;-1.930;2022-11-14T03:35:09;99691.19;;;11.93;88.30
60642;BME280;46837;52.446;-1.930;2022-11-14T03:36:09;99690.15;;;11.93;88.35
60642;BME280;46837;52.446;-1.930;2022-11-14T03:37:09;99691.77;;;11.94;88.28
60642;BME280;46837;52.446;-1.930;2022-11-14T03:38:09;99690.89;;;11.94;88.29
60642;BME280;46837;52.446;-1.930;2022-11-14T03:39:09;99690.59;;;11.93;88.21
60642;BME280;46837;52.446;-1.930;2022-11-14T03:40:09;99687.77;;;11.94;88.30
60642;BME280;46837;52.446;-1.930;2022-11-14T03:41:09;99689.71;;;11.92;88.16
60642;BME280;46837;52.446;-1.930;2022-11-14T03:42:09;99685.89;;;11.90;88.29
60642;BME280;46837;52.446;-1.930;2022-11-14T03:43:09;99685.65;;;11.87;88.39
60642;BME280;46837;52.446;-1.930;2022-11-14T03:44:09;99687.53;;;11.90;88.55
60642;BME280;46837;52.446;-1.930;2022-11-14T03:45:09;99686.13;;;11.90;88.52
60642;BME280;46837;52.446;-1.930;2022-11-14T03:46:09;99684.98;;;11.94;88.59
60642;BME280;46837;52.446;-1.930;2022-11-14T03:47:09;99686.12;;;11.96;88.34
60642;BME280;46837;52.446;-1.930;2022-11-14T03:48:09;99680.55;;;11.90;88.28
60642;BME280;46837;52.446;-1.930;2022-11-14T03:49:09;99683.99;;;11.94;88.73
60642;BME280;46837;52.446;-1.930;2022-11-14T03:50:09;99684.54;;;11.93;88.32
60642;BME280;46837;52.446;-1.930;2022-11-14T03:51:09;99685.39;;;11.91;88.40
60642;BME280;46837;52.446;-1.930;2022-11-14T03:52:09;99681.87;;;11.88;88.49
60642;BME280;46837;52.446;-1.930;2022-11-14T03:53:09;99678.77;;;11.92;88.63
60642;BME280;46837;52.446;-1.930;2022-11-14T03:54:09;99679.12;;;11.93;88.52
60642;BME280;46837;52.446;-1.930;2022-11-14T03:55:09;99676.93;;;11.94;88.31
60642;BME280;46837;52.446;-1.930;2022-11-14T03:56:09;99673.30;;;11.95;88.29
60642;BME280;46837;52.446;-1.930;2022-11-14T03:57:09;99672.92;;;11.96;88.28
60642;BME280;46837;52.446;-1.930;2022-11-14T03:58:09;99673.30;;;11.97;88.27
60642;BME280;46837;52.446;-1.930;2022-11-14T03:59:09;99669.83;;;11.97;88.24
60642;BME280;46837;52.446;-1.930;2022-11-14T04:00:09;99670.66;;;12.02;88.32
60642;BME280;46837;52.446;-1.930;2022-11-14T04:01:09;99670.12;;;12.06;88.18
60642;BME280;46837;52.446;-1.930;2022-11-14T04:02:09;99669.57;;;12.07;87.92
60642;BME280;46837;52.446;-1.930;2022-11-14T04:03:09;99670.63;;;12.04;87.96
60642;BME280;46837;52.446;-1.930;2022-11-14T04:04:10;99666.76;;;12.04;88.06
60642;BME280;46837;52.446;-1.930;2022-11-14T04:05:09;99670.95;;;12.05;88.05
60642;BME280;46837;52.446;-1.930;2022-11-14T04:06:09;99669.64;;;12.05;87.95
60642;BME280;46837;52.446;-1.930;2022-11-14T04:07:09;99671.29;;;12.04;87.98
60642;BME280;46837;52.446;-1.930;2022-11-14T04:08:09;99667.33;;;12.07;88.04
60642;BME280;46837;52.446;-1.930;2022-11-14T04:09:09;99667.88;;;12.06;88.02
60642;BME280;46837;52.446;-1.930;2022-11-14T04:10:09;99666.45;;;12.01;87.94
60642;BME280;46837;52.446;-1.930;2022-11-14T04:11:09;99665.42;;;11.97;88.34
60642;BME280;46837;52.446;-1.930;2022-11-14T04:12:09;99662.96;;;11.94;88.36
60642;BME280;46837;52.446;-1.930;2022-11-14T04:13:09;99663.90;;;11.89;88.46
60642;BME280;46837;52.446;-1.930;2022-11-14T04:14:09;99657.83;;;11.88;88.72
60642;BME280;46837;52.446;-1.930;2022-11-14T04:15:09;99657.69;;;11.91;88.73
60642;BME280;46837;52.446;-1.930;2022-11-14T04:16:09;99656.86;;;11.91;88.60
60642;BME280;46837;52.446;-1.930;2022-11-14T04:17:09;99656.45;;;11.94;88.61
60642;BME280;46837;52.446;-1.930;2022-11-14T04:18:09;99655.95;;;11.95;88.48
60642;BME280;46837;52.446;-1.930;2022-11-14T04:19:09;99655.78;;;11.96;88.54
60642;BME280;46837;52.446;-1.930;2022-11-14T04:20:09;99655.52;;;11.99;88.52
60642;BME280;46837;52.446;-1.930;2022-11-14T04:21:09;99655.38;;;12.02;88.51
60642;BME280;46837;52.446;-1.930;2022-11-14T04:22:09;99653.21;;;12.04;88.35
60642;BME280;46837;52.446;-1.930;2022-11-14T04:23:09;99650.51;;;12.02;88.18
60642;BME280;46837;52.446;-1.930;2022-11-14T04:24:09;99650.91;;;12.04;88.31
60642;BME280;46837;52.446;-1.930;2022-11-14T04:25:09;99651.50;;;12.06;88.28
60642;BME280;46837;52.446;-1.930;2022-11-14T04:26:09;99650.27;;;12.08;88.16
60642;BME280;46837;52.446;-1.930;2022-11-14T04:27:09;99651.28;;;12.01;88.12
60642;BME280;46837;52.446;-1.930;2022-11-14T04:28:09;99651.05;;;12.03;88.39
60642;BME280;46837;52.446;-1.930;2022-11-14T04:29:09;99649.96;;;12.02;88.32
60642;BME280;46837;52.446;-1.930;2022-11-14T04:30:09;99646.67;;;12.02;88.47
60642;BME280;46837;52.446;-1.930;2022-11-14T04:31:09;99648.94;;;12.04;88.35
60642;BME280;46837;52.446;-1.930;2022-11-14T04:32:09;99653.44;;;12.00;88.20
60642;BME280;46837;52.446;-1.930;2022-11-14T04:33:09;99649.08;;;12.03;88.62
60642;BME280;46837;52.446;-1.930;2022-11-14T04:34:09;99644.70;;;12.02;88.37
60642;BME280;46837;52.446;-1.930;2022-11-14T04:35:09;99643.02;;;12.06;88.44
60642;BME280;46837;52.446;-1.930;2022-11-14T04:36:09;99643.59;;;12.08;88.27
60642;BME280;46837;52.446;-1.930;2022-11-14T04:37:09;99641.37;;;12.07;88.13
60642;BME280;46837;52.446;-1.930;2022-11-14T04:38:09;99640.50;;;12.06;88.24
60642;BME280;46837;52.446;-1.930;2022-11-14T04:39:09;99638.21;;;12.10;88.37
60642;BME280;46837;52.446;-1.930;2022-11-14T04:40:09;99634.54;;;12.10;88.17
60642;BME280;46837;52.446;-1.930;2022-11-14T04:41:09;99638.17;;;12.12;88.11
60642;BME280;46837;52.446;-1.930;2022-11-14T04:42:09;99639.09;;;12.09;87.96
60642;BME280;46837;52.446;-1.930;2022-11-14T04:43:09;99640.17;;;12.06;88.17
60642;BME280;46837;52.446;-1.930;2022-11-14T04:44:09;99647.40;;;11.97;88.23
60642;BME280;46837;52.446;-1.930;2022-11-14T04:45:09;99649.16;;;11.94;88.96
60642;BME280;46837;52.446;-1.930;2022-11-14T04:46:09;99646.87;;;11.81;89.03
60642;BME280;46837;52.446;-1.930;2022-11-14T04:47:09;99648.39;;;11.76;89.61
60642;BME280;46837;52.446;-1.930;2022-11-14T04:48:09;99647.97;;;11.65;89.93
60642;BME280;46837;52.446;-1.930;2022-11-14T04:49:09;99647.01;;;11.68;90.35
60642;BME280;46837;52.446;-1.930;2022-11-14T04:50:09;99646.25;;;11.66;90.28
60642;BME280;46837;52.446;-1.930;2022-11-14T04:51:09;99643.85;;;11.72;90.29
60642;BME280;46837;52.446;-1.930;2022-11-14T04:52:09;99642.48;;;11.76;90.01
60642;BME280;46837;52.446;-1.930;2022-11-14T04:53:09;99643.05;;;11.75;89.88
60642;BME280;46837;52.446;-1.930;2022-11-14T04:54:09;99638.68;;;11.62;90.19
60642;BME280;46837;52.446;-1.930;2022-11-14T04:55:09;99640.34;;;11.61;90.49
60642;BME280;46837;52.446;-1.930;2022-11-14T04:56:09;99642.43;;;11.59;90.61
60642;BME280;46837;52.446;-1.930;2022-11-14T04:57:09;99643.85;;;11.61;90.75
60642;BME280;46837;52.446;-1.930;2022-11-14T04:58:09;99639.17;;;11.63;90.72
60642;BME280;46837;52.446;-1.930;2022-11-14T04:59:09;99634.64;;;11.68;90.65
60642;BME280;46837;52.446;-1.930;2022-11-14T05:00:09;99637.49;;;11.65;90.42
60642;BME280;46837;52.446;-1.930;2022-11-14T05:01:11;99635.60;;;11.65;90.50
60642;BME280;46837;52.446;-1.930;2022-11-14T05:02:09;99633.31;;;11.63;90.64
60642;BME280;46837;52.446;-1.930;2022-11-14T05:03:09;99629.27;;;11.68;90.76
60642;BME280;46837;52.446;-1.930;2022-11-14T05:04:09;99626.73;;;11.69;90.55
60642;BME280;46837;52.446;-1.930;2022-11-14T05:05:09;99622.63;;;11.64;90.83
60642;BME280;46837;52.446;-1.930;2022-11-14T05:06:09;99620.47;;;11.56;90.99
60642;BME280;46837;52.446;-1.930;2022-11-14T05:07:09;99621.60;;;11.52;91.35
60642;BME280;46837;52.446;-1.930;2022-11-14T05:08:09;99624.71;;;11.53;91.63
60642;BME280;46837;52.446;-1.930;2022-11-14T05:09:09;99633.64;;;11.52;91.51
60642;BME280;46837;52.446;-1.930;2022-11-14T05:10:09;99631.82;;;11.54;91.68
60642;BME280;46837;52.446;-1.930;2022-11-14T05:11:13;99630.31;;;11.56;91.35
60642;BME280;46837;52.446;-1.930;2022-11-14T05:12:09;99621.00;;;11.52;91.36
60642;BME280;46837;52.446;-1.930;2022-11-14T05:13:09;99618.71;;;11.58;91.69
60642;BME280;46837;52.446;-1.930;2022-11-14T05:14:10;99617.66;;;11.62;91.36
60642;BME280;46837;52.446;-1.930;2022-11-14T05:15:09;99613.30;;;11.55;91.12
60642;BME280;46837;52.446;-1.930;2022-11-14T05:16:09;99612.05;;;11.51;91.44
60642;BME280;46837;52.446;-1.930;2022-11-14T05:17:09;99608.91;;;11.47;91.96
60642;BME280;46837;52.446;-1.930;2022-11-14T05:18:09;99608.36;;;11.47;92.06